createdAt,value
2023-05-08T00:00:31.307Z,11.14
2023-05-08T00:02:58.132Z,10.91
2023-05-08T00:05:25.288Z,11.00
2023-05-08T00:07:53.575Z,10.57
2023-05-08T00:10:20.386Z,10.69
2023-05-08T00:12:47.222Z,11.04
2023-05-08T00:15:14.229Z,11.03
2023-05-08T00:17:41.036Z,10.86
2023-05-08T00:20:08.818Z,10.93
2023-05-08T00:22:35.764Z,9.75
2023-05-08T00:25:03.403Z,9.49
2023-05-08T00:27:30.916Z,10.60
2023-05-08T00:29:58.143Z,10.13
2023-05-08T00:32:25.504Z,10.07
2023-05-08T00:34:52.889Z,9.92
2023-05-08T00:37:19.901Z,10.44
2023-05-08T00:39:46.588Z,10.67
2023-05-08T00:42:13.365Z,11.55
2023-05-08T00:44:40.244Z,11.49
2023-05-08T00:47:08.680Z,11.22
2023-05-08T00:49:36.111Z,11.24
2023-05-08T00:52:08.720Z,11.72
2023-05-08T00:54:37.900Z,12.10
2023-05-08T00:57:07.922Z,11.00
2023-05-08T00:59:36.891Z,11.94
2023-05-08T01:02:04.144Z,11.72
2023-05-08T01:04:31.883Z,11.53
2023-05-08T01:06:59.418Z,11.34
2023-05-08T01:09:26.484Z,9.72
2023-05-08T01:12:25.767Z,11.65
2023-05-08T01:14:58.404Z,11.59
2023-05-08T01:17:43.328Z,11.49
2023-05-08T01:20:29.113Z,11.10
2023-05-08T01:23:28.212Z,11.55
2023-05-08T01:26:28.740Z,11.82
2023-05-08T01:29:24.990Z,12.22
2023-05-08T01:32:24.387Z,11.89
2023-05-08T01:35:06.122Z,11.38
2023-05-08T01:37:49.431Z,11.28
2023-05-08T01:40:47.591Z,11.54
2023-05-08T01:43:19.045Z,10.61
2023-05-08T01:45:50.299Z,11.21
2023-05-08T01:48:44.914Z,11.80
2023-05-08T01:51:20.772Z,10.95
2023-05-08T01:53:52.521Z,11.67
2023-05-08T01:56:23.002Z,11.84
2023-05-08T01:58:52.989Z,11.45
2023-05-08T02:01:25.657Z,11.16
2023-05-08T02:03:54.801Z,10.64
2023-05-08T02:06:22.818Z,11.95
2023-05-08T02:08:51.507Z,11.66
2023-05-08T02:11:19.774Z,11.54
2023-05-08T02:13:48.665Z,11.01
2023-05-08T02:16:17.951Z,12.15
2023-05-08T02:18:52.530Z,11.77
2023-05-08T02:21:20.716Z,12.01
2023-05-08T02:23:48.531Z,12.77
2023-05-08T02:26:16.505Z,12.17
2023-05-08T02:28:45.410Z,12.02
2023-05-08T02:31:13.603Z,11.84
2023-05-08T02:33:42.543Z,12.02
2023-05-08T02:36:13.099Z,11.48
2023-05-08T02:38:44.141Z,12.05
2023-05-08T02:41:13.739Z,12.45
2023-05-08T02:43:41.018Z,12.12
2023-05-08T02:46:14.107Z,11.42
2023-05-08T02:48:44.642Z,9.51
2023-05-08T02:51:21.546Z,9.30
2023-05-08T02:54:19.882Z,9.70
2023-05-08T02:57:11.073Z,10.52
2023-05-08T02:59:44.016Z,10.33
2023-05-08T03:02:37.362Z,11.34
2023-05-08T03:05:14.573Z,8.70
2023-05-08T03:07:43.769Z,9.57
2023-05-08T03:10:16.953Z,11.48
2023-05-08T03:12:47.998Z,10.54
2023-05-08T03:15:26.037Z,9.57
2023-05-08T03:17:58.829Z,9.35
2023-05-08T03:20:27.165Z,10.14
2023-05-08T03:22:56.142Z,9.44
2023-05-08T03:25:24.261Z,10.02
2023-05-08T03:27:53.041Z,11.15
2023-05-08T03:30:21.347Z,9.08
2023-05-08T03:32:59.386Z,10.28
2023-05-08T03:35:27.896Z,10.02
2023-05-08T03:37:55.175Z,11.20
2023-05-08T03:40:22.093Z,10.24
2023-05-08T03:42:50.301Z,11.47
2023-05-08T03:45:19.027Z,10.39
2023-05-08T03:47:47.714Z,9.42
2023-05-08T03:50:16.105Z,10.85
2023-05-08T03:52:43.468Z,12.08
2023-05-08T03:55:10.381Z,10.72
2023-05-08T03:57:57.296Z,10.54
2023-05-08T04:00:42.570Z,11.49
2023-05-08T04:03:18.397Z,10.01
2023-05-08T04:06:30.802Z,12.39
2023-05-08T04:09:04.147Z,10.34
2023-05-08T04:11:38.595Z,10.44
2023-05-08T04:14:07.814Z,11.15
2023-05-08T04:16:48.431Z,9.41
2023-05-08T04:19:23.115Z,11.68
2023-05-08T04:21:51.654Z,9.42
2023-05-08T04:24:21.023Z,9.49
2023-05-08T04:26:48.715Z,9.52
2023-05-08T04:29:17.779Z,9.34
2023-05-08T04:31:45.603Z,10.12
2023-05-08T04:34:12.812Z,9.57
2023-05-08T04:36:40.417Z,8.88
2023-05-08T04:39:07.955Z,8.51
2023-05-08T04:41:35.976Z,8.40
2023-05-08T04:44:04.438Z,10.69
2023-05-08T04:46:31.637Z,11.20
2023-05-08T04:48:58.764Z,9.12
2023-05-08T04:51:29.499Z,9.24
2023-05-08T04:53:56.301Z,8.87
2023-05-08T04:56:23.246Z,7.22
2023-05-08T04:58:51.202Z,8.70
2023-05-08T05:01:18.430Z,8.85
2023-05-08T05:03:45.341Z,10.60
2023-05-08T05:06:12.749Z,10.02
2023-05-08T05:08:39.545Z,9.05
2023-05-08T05:11:07.148Z,8.77
2023-05-08T05:13:33.887Z,7.70
2023-05-08T05:16:00.873Z,8.03
2023-05-08T05:18:27.733Z,8.37
2023-05-08T05:20:58.112Z,8.76
2023-05-08T05:23:25.581Z,8.24
2023-05-08T05:25:52.697Z,8.08
2023-05-08T05:28:19.553Z,8.70
2023-05-08T05:30:49.462Z,9.94
2023-05-08T05:33:17.026Z,7.91
2023-05-08T05:35:44.423Z,9.39
2023-05-08T05:38:11.465Z,7.45
2023-05-08T05:40:38.634Z,7.80
2023-05-08T05:43:05.307Z,8.66
2023-05-08T05:45:33.613Z,7.62
2023-05-08T05:48:00.984Z,7.60
2023-05-08T05:50:28.669Z,6.73
2023-05-08T05:52:56.764Z,7.02
2023-05-08T05:55:23.717Z,8.33
2023-05-08T05:57:51.752Z,7.56
2023-05-08T06:00:19.236Z,9.45
2023-05-08T06:02:50.082Z,7.21
2023-05-08T06:05:19.709Z,6.32
2023-05-08T06:07:46.514Z,7.14
2023-05-08T06:10:13.399Z,9.23
2023-05-08T06:12:40.683Z,10.00
2023-05-08T06:15:09.462Z,9.54
2023-05-08T06:17:37.017Z,9.32
2023-05-08T06:20:04.458Z,9.27
2023-05-08T06:22:31.269Z,9.36
2023-05-08T06:24:58.649Z,7.97
2023-05-08T06:27:26.081Z,6.23
2023-05-08T06:29:53.397Z,6.62
2023-05-08T06:32:21.140Z,7.39
2023-05-08T06:34:49.146Z,5.86
2023-05-08T06:37:15.856Z,6.15
2023-05-08T06:39:42.662Z,7.25
2023-05-08T06:42:10.028Z,8.09
2023-05-08T06:44:41.318Z,8.25
2023-05-08T06:47:08.931Z,7.54
2023-05-08T06:49:37.261Z,8.34
2023-05-08T06:52:04.499Z,6.61
2023-05-08T06:54:31.256Z,7.48
2023-05-08T06:56:57.933Z,5.95
2023-05-08T06:59:24.999Z,7.08
2023-05-08T07:01:52.268Z,6.36
2023-05-08T07:04:19.348Z,7.63
2023-05-08T07:06:46.214Z,8.77
2023-05-08T07:09:12.995Z,8.21
2023-05-08T07:11:39.748Z,6.45
2023-05-08T07:14:07.582Z,6.31
2023-05-08T07:16:34.849Z,7.81
2023-05-08T07:19:01.717Z,8.15
2023-05-08T07:21:29.520Z,7.88
2023-05-08T07:23:56.733Z,7.53
2023-05-08T07:26:24.005Z,6.60
2023-05-08T07:28:54.349Z,8.53
2023-05-08T07:31:21.942Z,9.25
2023-05-08T07:33:49.688Z,7.81
2023-05-08T07:36:16.494Z,8.71
2023-05-08T07:38:43.274Z,8.07
2023-05-08T07:41:10.197Z,8.97
2023-05-08T07:43:37.934Z,7.76
2023-05-08T07:46:05.469Z,7.73
2023-05-08T07:48:32.219Z,8.70
2023-05-08T07:50:59.093Z,8.23
2023-05-08T07:53:25.976Z,7.57
2023-05-08T07:55:53.036Z,7.00
2023-05-08T07:58:21.132Z,8.42
2023-05-08T08:00:48.784Z,9.08
2023-05-08T08:03:15.492Z,10.71
2023-05-08T08:05:43.035Z,9.86
2023-05-08T08:08:09.775Z,9.39
2023-05-08T08:10:36.557Z,6.54
2023-05-08T08:13:03.311Z,8.16
2023-05-08T08:15:30.515Z,9.49
2023-05-08T08:17:57.574Z,10.04
2023-05-08T08:20:24.754Z,11.29
2023-05-08T08:22:51.430Z,9.19
2023-05-08T08:25:18.203Z,7.86
2023-05-08T08:27:44.939Z,9.37
2023-05-08T08:30:16.935Z,8.22
2023-05-08T08:32:44.999Z,9.66
2023-05-08T08:35:12.728Z,7.00
2023-05-08T08:37:40.337Z,7.27
2023-05-08T08:40:07.751Z,7.26
2023-05-08T08:42:35.730Z,8.18
2023-05-08T08:45:02.563Z,10.09
2023-05-08T08:47:34.839Z,8.78
2023-05-08T08:50:04.134Z,7.74
2023-05-08T08:52:41.320Z,7.97
2023-05-08T08:55:12.900Z,9.70
2023-05-08T08:57:48.705Z,10.77
2023-05-08T09:00:16.218Z,10.06
2023-05-08T09:02:43.673Z,9.94
2023-05-08T09:05:11.678Z,10.87
2023-05-08T09:07:39.822Z,11.00
2023-05-08T09:10:07.793Z,8.92
2023-05-08T09:12:34.657Z,10.64
2023-05-08T09:15:01.378Z,9.72
2023-05-08T09:17:28.268Z,9.53
2023-05-08T09:19:55.812Z,9.86
2023-05-08T09:22:24.624Z,8.99
2023-05-08T09:24:59.486Z,9.00
2023-05-08T09:27:28.096Z,7.87
2023-05-08T09:30:07.037Z,8.10
2023-05-08T09:32:35.935Z,9.18
2023-05-08T09:35:03.560Z,10.42
2023-05-08T09:37:30.748Z,11.18
2023-05-08T09:40:13.495Z,8.90
2023-05-08T09:42:41.063Z,9.99
2023-05-08T09:45:08.334Z,8.28
2023-05-08T09:47:39.640Z,9.41
2023-05-08T09:50:09.498Z,10.55
2023-05-08T09:52:38.238Z,11.64
2023-05-08T09:55:08.023Z,11.29
2023-05-08T09:57:38.308Z,9.77
2023-05-08T10:00:14.790Z,11.89
2023-05-08T10:02:53.488Z,11.39
2023-05-08T10:05:27.677Z,12.33
2023-05-08T10:07:54.633Z,10.45
2023-05-08T10:10:30.818Z,10.16
2023-05-08T10:12:58.802Z,10.93
2023-05-08T10:15:31.346Z,10.13
2023-05-08T10:18:03.174Z,13.12
2023-05-08T10:20:31.376Z,12.19
2023-05-08T10:22:59.286Z,10.22
2023-05-08T10:25:26.341Z,12.27
2023-05-08T10:28:28.711Z,12.27
2023-05-08T10:30:59.822Z,10.95
2023-05-08T10:33:33.533Z,11.68
2023-05-08T10:36:01.073Z,12.44
2023-05-08T10:38:28.022Z,12.56
2023-05-08T10:40:58.655Z,13.17
2023-05-08T10:43:26.311Z,12.98
2023-05-08T10:45:56.198Z,13.70
2023-05-08T10:48:45.377Z,11.67
2023-05-08T10:51:44.261Z,13.30
2023-05-08T10:54:19.381Z,14.37
2023-05-08T10:56:46.322Z,15.01
2023-05-08T10:59:20.763Z,11.15
2023-05-08T11:01:49.436Z,11.70
2023-05-08T11:04:22.229Z,13.25
2023-05-08T11:06:52.992Z,13.06
2023-05-08T11:09:27.085Z,12.52
2023-05-08T11:12:30.644Z,14.53
2023-05-08T11:15:02.050Z,13.40
2023-05-08T11:17:29.623Z,14.34
2023-05-08T11:20:00.155Z,11.68
2023-05-08T11:22:34.755Z,12.74
2023-05-08T11:25:11.445Z,13.43
2023-05-08T11:27:47.085Z,13.22
2023-05-08T11:30:35.006Z,12.21
2023-05-08T11:33:05.095Z,13.86
2023-05-08T11:35:43.360Z,14.17
2023-05-08T11:38:28.397Z,13.04
2023-05-08T11:41:03.338Z,14.42
2023-05-08T11:43:33.085Z,13.99
2023-05-08T11:46:10.770Z,15.60
2023-05-08T11:48:37.679Z,15.58
2023-05-08T11:51:04.611Z,15.57
2023-05-08T11:53:32.513Z,15.40
2023-05-08T11:56:00.604Z,14.79
2023-05-08T11:58:27.309Z,16.15
2023-05-08T12:00:54.782Z,15.36
2023-05-08T12:03:26.040Z,15.14
2023-05-08T12:05:57.483Z,14.53
2023-05-08T12:08:24.683Z,14.04
2023-05-08T12:10:57.268Z,12.26
2023-05-08T12:13:25.006Z,15.50
2023-05-08T12:16:01.004Z,13.64
2023-05-08T12:18:30.700Z,15.13
2023-05-08T12:20:59.747Z,15.56
2023-05-08T12:23:29.808Z,13.87
2023-05-08T12:26:01.109Z,15.06
2023-05-08T12:28:28.943Z,13.42
2023-05-08T12:30:56.234Z,14.11
2023-05-08T12:33:23.966Z,12.92
2023-05-08T12:35:50.989Z,13.55
2023-05-08T12:38:17.740Z,13.91
2023-05-08T12:40:46.551Z,14.74
2023-05-08T12:43:13.546Z,14.87
2023-05-08T12:45:42.933Z,12.95
2023-05-08T12:48:12.712Z,13.02
2023-05-08T12:50:41.607Z,13.48
2023-05-08T12:53:13.980Z,13.74
2023-05-08T12:55:53.666Z,13.42
2023-05-08T12:58:25.340Z,14.69
2023-05-08T13:00:54.798Z,14.47
2023-05-08T13:03:26.772Z,14.30
2023-05-08T13:05:55.602Z,15.87
2023-05-08T13:08:33.579Z,15.76
2023-05-08T13:11:01.518Z,15.23
2023-05-08T13:13:31.523Z,12.64
2023-05-08T13:16:02.455Z,13.14
2023-05-08T13:18:30.009Z,13.90
2023-05-08T13:20:57.835Z,11.39
2023-05-08T13:23:24.603Z,13.62
2023-05-08T13:25:51.687Z,14.38
2023-05-08T13:28:18.778Z,14.22
2023-05-08T13:30:46.147Z,13.62
2023-05-08T13:33:13.253Z,13.99
2023-05-08T13:35:40.083Z,12.01
2023-05-08T13:38:06.800Z,12.92
2023-05-08T13:40:33.687Z,14.19
2023-05-08T13:43:00.790Z,13.88
2023-05-08T13:45:27.925Z,15.33
2023-05-08T13:47:54.947Z,13.70
2023-05-08T13:50:22.510Z,13.72
2023-05-08T13:52:50.983Z,14.01
2023-05-08T13:55:21.912Z,13.63
2023-05-08T13:57:48.845Z,12.44
2023-05-08T14:00:16.162Z,13.70
2023-05-08T14:02:43.809Z,11.83
2023-05-08T14:05:10.678Z,12.87
2023-05-08T14:07:37.779Z,12.21
2023-05-08T14:10:05.075Z,14.85
2023-05-08T14:12:35.958Z,15.13
2023-05-08T14:15:06.350Z,13.98
2023-05-08T14:17:33.290Z,13.93
2023-05-08T14:20:00.538Z,13.12
2023-05-08T14:22:27.326Z,13.91
2023-05-08T14:24:54.261Z,14.06
2023-05-08T14:27:21.049Z,13.34
2023-05-08T14:29:48.110Z,12.17
2023-05-08T14:32:15.297Z,13.45
2023-05-08T14:34:42.422Z,11.24
2023-05-08T14:37:09.368Z,13.59
2023-05-08T14:39:36.098Z,14.55
2023-05-08T14:44:33.562Z,13.95
2023-05-08T14:47:00.548Z,14.18
2023-05-08T14:49:36.569Z,12.47
2023-05-08T14:52:05.712Z,13.62
2023-05-08T14:54:32.785Z,13.27
2023-05-08T14:56:59.855Z,13.56
2023-05-08T14:59:27.526Z,14.52
2023-05-08T15:01:55.189Z,12.39
2023-05-08T15:04:22.045Z,13.56
2023-05-08T15:06:49.289Z,13.25
2023-05-08T15:09:19.171Z,14.42
2023-05-08T15:11:45.925Z,14.32
2023-05-08T15:14:12.863Z,12.56
2023-05-08T15:16:39.851Z,13.75
2023-05-08T15:19:06.616Z,13.27
2023-05-08T15:21:33.584Z,13.94
2023-05-08T15:24:00.816Z,13.31
2023-05-08T15:26:28.081Z,14.25
2023-05-08T15:28:54.938Z,14.65
2023-05-08T15:31:21.790Z,13.20
2023-05-08T15:33:48.847Z,13.27
2023-05-08T15:36:16.054Z,13.51
2023-05-08T15:38:44.374Z,12.70
2023-05-08T15:41:15.444Z,13.05
2023-05-08T15:43:43.326Z,14.34
2023-05-08T15:46:10.467Z,14.58
2023-05-08T15:48:37.325Z,13.76
2023-05-08T15:51:04.349Z,13.97
2023-05-08T15:53:31.192Z,14.74
2023-05-08T15:55:58.500Z,14.58
2023-05-08T15:58:25.384Z,13.62
2023-05-08T16:00:52.304Z,12.53
2023-05-08T16:03:19.593Z,13.50
2023-05-08T16:05:46.409Z,13.61
2023-05-08T16:08:13.939Z,14.28
2023-05-08T16:10:41.936Z,13.05
2023-05-08T16:13:09.329Z,13.76
2023-05-08T16:15:36.201Z,11.80
2023-05-08T16:18:03.350Z,13.58
2023-05-08T16:20:30.592Z,14.15
2023-05-08T16:22:58.799Z,13.00
2023-05-08T16:25:25.905Z,13.81
2023-05-08T16:27:52.863Z,13.04
2023-05-08T16:30:19.772Z,12.56
2023-05-08T16:32:46.814Z,13.38
2023-05-08T16:35:14.246Z,12.66
2023-05-08T16:37:41.663Z,13.11
2023-05-08T16:40:09.480Z,11.90
2023-05-08T16:42:37.139Z,13.51
2023-05-08T16:45:08.146Z,14.07
2023-05-08T16:47:35.358Z,12.26
2023-05-08T16:50:03.221Z,11.86
2023-05-08T16:52:31.291Z,11.94
2023-05-08T16:54:59.223Z,13.30
2023-05-08T16:57:27.455Z,11.92
2023-05-08T16:59:54.752Z,13.57
2023-05-08T17:02:22.055Z,12.89
2023-05-08T17:04:49.972Z,12.94
2023-05-08T17:07:18.302Z,13.06
2023-05-08T17:09:48.306Z,11.08
2023-05-08T17:12:15.744Z,11.97
2023-05-08T17:14:42.729Z,13.34
2023-05-08T17:17:09.940Z,12.26
2023-05-08T17:19:36.766Z,11.59
2023-05-08T17:22:03.807Z,13.64
2023-05-08T17:24:32.586Z,11.45
2023-05-08T17:26:59.680Z,12.45
2023-05-08T17:29:26.567Z,11.34
2023-05-08T17:31:53.430Z,10.92
2023-05-08T17:34:22.804Z,12.48
2023-05-08T17:36:50.479Z,12.02
2023-05-08T17:39:20.117Z,11.83
2023-05-08T17:41:48.768Z,12.48
2023-05-08T17:44:16.698Z,12.92
2023-05-08T17:46:43.822Z,13.72
2023-05-08T17:49:11.798Z,13.47
2023-05-08T17:51:38.660Z,11.84
2023-05-08T17:54:06.486Z,12.65
2023-05-08T17:56:34.034Z,12.99
2023-05-08T17:59:01.355Z,13.18
2023-05-08T18:01:30.080Z,12.99
2023-05-08T18:03:56.966Z,12.21
2023-05-08T18:06:23.869Z,12.48
2023-05-08T18:08:51.217Z,12.69
2023-05-08T18:11:20.113Z,12.13
2023-05-08T18:13:47.212Z,12.65
2023-05-08T18:16:16.234Z,12.36
2023-05-08T18:18:43.326Z,12.79
2023-05-08T18:21:10.196Z,12.58
2023-05-08T18:23:37.337Z,13.17
2023-05-08T18:26:04.619Z,13.05
2023-05-08T18:28:32.194Z,13.51
2023-05-08T18:30:59.367Z,13.43
2023-05-08T18:33:27.417Z,12.63
2023-05-08T18:35:54.225Z,12.61
2023-05-08T18:38:21.451Z,12.64
2023-05-08T18:40:48.321Z,12.61
2023-05-08T18:43:15.621Z,12.51
2023-05-08T18:45:43.042Z,12.20
2023-05-08T18:48:11.157Z,12.09
2023-05-08T18:50:41.061Z,11.93
2023-05-08T18:53:10.129Z,11.98
2023-05-08T18:55:37.656Z,11.64
2023-05-08T18:58:06.469Z,12.22
2023-05-08T19:00:33.720Z,11.55
2023-05-08T19:03:01.540Z,11.36
2023-05-08T19:05:28.956Z,11.61
2023-05-08T19:07:56.279Z,11.39
2023-05-08T19:10:24.096Z,11.03
2023-05-08T19:12:51.908Z,11.23
2023-05-08T19:15:19.782Z,10.21
2023-05-08T19:17:47.863Z,11.47
2023-05-08T19:20:16.417Z,12.20
2023-05-08T19:22:43.911Z,11.66
2023-05-08T19:25:12.874Z,11.85
2023-05-08T19:27:40.239Z,11.62
2023-05-08T19:30:08.438Z,12.20
2023-05-08T19:32:35.671Z,10.98
2023-05-08T19:35:02.943Z,10.53
2023-05-08T19:37:31.189Z,11.14
2023-05-08T19:39:58.517Z,10.46
2023-05-08T19:42:26.079Z,11.20
2023-05-08T19:44:53.444Z,10.21
2023-05-08T19:47:21.236Z,11.30
2023-05-08T19:49:50.115Z,11.25
2023-05-08T19:52:17.904Z,11.26
2023-05-08T19:54:46.289Z,11.03
2023-05-08T19:57:13.464Z,11.23
2023-05-08T19:59:40.570Z,11.38
2023-05-08T20:02:07.395Z,11.88
2023-05-08T20:04:43.827Z,11.18
2023-05-08T20:07:21.118Z,10.99
2023-05-08T20:09:47.970Z,11.38
2023-05-08T20:12:14.756Z,10.89
2023-05-08T20:14:41.638Z,11.35
2023-05-08T20:17:08.747Z,10.67
2023-05-08T20:19:35.638Z,10.83
2023-05-08T20:22:03.174Z,10.05
2023-05-08T20:24:30.394Z,10.56
2023-05-08T20:26:58.202Z,10.14
2023-05-08T20:29:25.025Z,10.05
2023-05-08T20:31:52.584Z,10.78
2023-05-08T20:34:21.817Z,11.02
2023-05-08T20:36:49.446Z,10.86
2023-05-08T20:39:16.903Z,10.18
2023-05-08T20:41:43.664Z,9.72
2023-05-08T20:44:12.430Z,10.38
2023-05-08T20:46:40.729Z,9.98
2023-05-08T20:49:07.944Z,10.57
2023-05-08T20:51:36.486Z,9.85
2023-05-08T20:54:03.596Z,10.01
2023-05-08T20:56:30.470Z,10.58
2023-05-08T20:58:57.469Z,9.56
2023-05-08T21:01:24.206Z,9.81
2023-05-08T21:03:51.082Z,9.28
2023-05-08T21:06:18.364Z,10.48
2023-05-08T21:08:45.117Z,9.75
2023-05-08T21:11:12.630Z,10.30
2023-05-08T21:13:39.374Z,9.45
2023-05-08T21:16:07.893Z,9.69
2023-05-08T21:18:34.836Z,11.21
2023-05-08T21:21:01.911Z,10.42
2023-05-08T21:23:30.049Z,10.06
2023-05-08T21:25:56.778Z,9.90
2023-05-08T21:28:23.500Z,9.74
2023-05-08T21:30:50.302Z,10.48
2023-05-08T21:33:18.366Z,10.63
2023-05-08T21:35:45.396Z,10.28
2023-05-08T21:38:12.159Z,9.73
2023-05-08T21:40:39.388Z,9.92
2023-05-08T21:43:06.292Z,9.88
2023-05-08T21:45:34.068Z,9.67
2023-05-08T21:48:01.288Z,9.16
2023-05-08T21:50:28.553Z,8.97
2023-05-08T21:52:56.586Z,8.95
2023-05-08T21:55:23.939Z,9.82
2023-05-08T21:57:51.341Z,9.20
2023-05-08T22:00:19.053Z,9.87
2023-05-08T22:02:48.838Z,10.18
2023-05-08T22:05:15.783Z,10.06
2023-05-08T22:07:42.852Z,10.37
2023-05-08T22:10:11.532Z,9.92
2023-05-08T22:12:38.769Z,9.03
2023-05-08T22:15:14.811Z,10.34
2023-05-08T22:17:50.710Z,9.96
2023-05-08T22:20:18.731Z,10.10
2023-05-08T22:22:45.870Z,9.37
2023-05-08T22:25:12.782Z,8.88
2023-05-08T22:27:40.023Z,8.55
2023-05-08T22:30:07.554Z,8.88
2023-05-08T22:32:34.555Z,9.42
2023-05-08T22:35:01.285Z,8.43
2023-05-08T22:37:28.064Z,8.77
2023-05-08T22:39:54.966Z,8.29
2023-05-08T22:42:21.926Z,7.96
2023-05-08T22:44:49.062Z,8.56
2023-05-08T22:47:16.122Z,7.54
2023-05-08T22:49:43.643Z,7.40
2023-05-08T22:52:10.444Z,7.64
2023-05-08T22:54:37.218Z,6.91
2023-05-08T22:57:04.350Z,6.95
2023-05-08T22:59:31.111Z,7.21
2023-05-08T23:01:58.089Z,7.12
2023-05-08T23:04:25.175Z,6.79
2023-05-08T23:06:52.058Z,7.29
2023-05-08T23:09:19.182Z,7.47
2023-05-08T23:11:45.884Z,6.29
2023-05-08T23:14:12.714Z,7.20
2023-05-08T23:16:39.510Z,7.41
2023-05-08T23:19:07.399Z,8.22
2023-05-08T23:21:34.581Z,7.93
2023-05-08T23:24:01.371Z,8.09
2023-05-08T23:26:28.109Z,6.99
2023-05-08T23:28:54.816Z,5.87
2023-05-08T23:31:22.032Z,6.93
2023-05-08T23:33:48.785Z,5.62
2023-05-08T23:36:15.528Z,5.88
2023-05-08T23:38:42.378Z,6.51
2023-05-08T23:41:10.944Z,5.86
2023-05-08T23:43:37.857Z,6.19
2023-05-08T23:46:04.813Z,6.15
2023-05-08T23:48:31.671Z,7.13
2023-05-08T23:50:58.363Z,8.39
2023-05-08T23:53:25.084Z,8.41
2023-05-08T23:55:52.449Z,7.89
2023-05-08T23:58:19.714Z,8.35
